Time;durP1;ratioP1;P1;durP2;ratioP2;P2;SDS_P1;SDS_P2;PMS_P1;PMS_P2;Temp;Humidity;BMP_temperature;BMP_pressure;BME280_temperature;BME280_humidity;BME280_pressure;Samples;Min_cycle;Max_cycle;Signal;HPM_P1;HPM_P2
2021/12/10 00:00:37;;;;;;;47.10;26.63;;;5.10;99.90;;;;;;4888449;29;20041;-73
2021/12/10 00:03:06;;;;;;;47.17;25.75;;;5.60;99.90;;;;;;4888939;29;20461;-74
2021/12/10 00:05:37;;;;;;;48.33;26.25;;;5.10;99.90;;;;;;4870714;29;20119;-73
2021/12/10 00:08:04;;;;;;;42.42;25.55;;;5.10;99.90;;;;;;4869587;29;20072;-74
2021/12/10 00:10:35;;;;;;;46.05;27.63;;;5.10;99.90;;;;;;4869360;29;20044;-73
2021/12/10 00:13:01;;;;;;;43.92;27.55;;;5.10;99.90;;;;;;4870066;29;20053;-73
2021/12/10 00:15:30;;;;;;;43.63;26.60;;;5.00;99.90;;;;;;4873545;29;20879;-73
2021/12/10 00:17:57;;;;;;;46.38;25.55;;;5.10;99.90;;;;;;4870732;29;20036;-74
2021/12/10 00:20:27;;;;;;;43.25;23.75;;;5.00;99.90;;;;;;4871345;29;20913;-73
2021/12/10 00:22:58;;;;;;;45.35;25.42;;;5.10;99.90;;;;;;4871172;29;20044;-73
2021/12/10 00:25:35;;;;;;;39.42;23.65;;;5.00;99.90;;;;;;4867403;29;20096;-73
2021/12/10 00:28:19;;;;;;;43.83;24.83;;;4.90;99.90;;;;;;4886989;29;20475;-74
2021/12/10 00:31:16;;;;;;;42.40;24.73;;;4.90;99.90;;;;;;4868030;29;20044;-73
2021/12/10 00:33:56;;;;;;;40.40;23.35;;;5.00;99.90;;;;;;4868033;29;20068;-74
2021/12/10 00:36:22;;;;;;;42.58;23.80;;;4.90;99.90;;;;;;4869537;29;20465;-73
2021/12/10 00:38:50;;;;;;;42.97;24.75;;;4.80;99.90;;;;;;4867906;29;20056;-73
2021/12/10 00:41:18;;;;;;;41.80;24.23;;;4.80;99.90;;;;;;4870251;29;20056;-73
2021/12/10 00:43:44;;;;;;;39.53;24.55;;;4.70;99.90;;;;;;4869889;29;20052;-73
2021/12/10 00:46:10;;;;;;;45.25;24.80;;;4.70;99.90;;;;;;4867173;29;20052;-73
2021/12/10 00:48:37;;;;;;;46.45;24.92;;;4.80;99.90;;;;;;4886973;29;20040;-73
2021/12/10 00:51:06;;;;;;;47.05;24.73;;;4.80;99.90;;;;;;4870742;29;20520;-73
2021/12/10 00:53:35;;;;;;;43.55;24.60;;;4.80;99.90;;;;;;4885565;29;20049;-73
2021/12/10 00:56:03;;;;;;;46.38;24.00;;;4.80;99.90;;;;;;4872267;29;20397;-73
2021/12/10 00:58:30;;;;;;;43.75;24.48;;;4.90;99.90;;;;;;4870102;29;20481;-73
2021/12/10 01:01:00;;;;;;;42.60;23.92;;;4.90;99.90;;;;;;4886627;29;20131;-73
2021/12/10 01:03:49;;;;;;;40.53;23.38;;;4.80;99.90;;;;;;4869854;29;21038;-73
2021/12/10 01:06:17;;;;;;;44.00;22.63;;;4.90;99.90;;;;;;4888602;29;20044;-73
2021/12/10 01:08:45;;;;;;;43.53;23.90;;;5.50;99.90;;;;;;4869354;29;20044;-74
2021/12/10 01:11:17;;;;;;;41.85;23.23;;;5.00;99.90;;;;;;4889580;29;20049;-73
2021/12/10 01:13:46;;;;;;;42.85;24.10;;;4.90;99.90;;;;;;4870815;29;20078;-73
2021/12/10 01:24:33;;;;;;;42.50;23.80;;;5.00;99.90;;;;;;4869810;29;20052;-73
2021/12/10 01:27:08;;;;;;;40.42;23.23;;;5.00;99.90;;;;;;4868518;29;20060;-73
2021/12/10 01:29:39;;;;;;;39.28;22.30;;;5.00;99.90;;;;;;4883744;29;20532;-74
2021/12/10 01:32:07;;;;;;;38.55;21.75;;;5.00;99.90;;;;;;4870895;29;20096;-73
2021/12/10 01:34:33;;;;;;;36.45;22.33;;;5.00;99.90;;;;;;4888274;29;20053;-74
2021/12/10 01:36:59;;;;;;;36.90;21.20;;;5.00;99.90;;;;;;4871106;29;20520;-73
2021/12/10 01:39:29;;;;;;;37.47;21.50;;;5.00;99.90;;;;;;4871568;29;20519;-73
2021/12/10 01:42:03;;;;;;;32.70;20.38;;;5.00;99.90;;;;;;4869713;29;20059;-73
2021/12/10 01:44:36;;;;;;;33.58;20.52;;;5.00;99.90;;;;;;4867161;29;20063;-73
2021/12/10 01:47:05;;;;;;;33.92;20.13;;;4.90;99.90;;;;;;4867001;29;20060;-73
2021/12/10 01:49:31;;;;;;;34.22;20.77;;;5.10;99.90;;;;;;4882073;29;20489;-73
2021/12/10 01:51:57;;;;;;;31.92;19.45;;;5.10;99.90;;;;;;4871745;29;20460;-73
2021/12/10 01:54:35;;;;;;;30.45;19.08;;;5.00;99.90;;;;;;4884597;29;20048;-73
2021/12/10 01:57:02;;;;;;;28.80;18.67;;;5.00;99.90;;;;;;4869148;29;20063;-73
2021/12/10 01:59:30;;;;;;;28.50;17.90;;;5.00;99.90;;;;;;4887288;29;20528;-73
2021/12/10 02:02:00;;;;;;;28.15;16.95;;;5.00;99.90;;;;;;4874797;29;20064;-73
2021/12/10 02:04:29;;;;;;;25.85;17.63;;;5.00;99.90;;;;;;4893126;29;20060;-73
2021/12/10 02:06:55;;;;;;;24.55;16.70;;;5.00;99.90;;;;;;4878761;29;20528;-74
2021/12/10 02:09:21;;;;;;;32.05;16.55;;;4.90;99.90;;;;;;4873291;29;20060;-73
2021/12/10 02:11:47;;;;;;;25.77;15.60;;;5.00;99.90;;;;;;4871015;29;20049;-73
2021/12/10 02:14:14;;;;;;;25.05;16.60;;;4.90;99.90;;;;;;4872584;29;20084;-73
2021/12/10 02:16:43;;;;;;;23.25;15.73;;;4.90;99.90;;;;;;4890202;29;20461;-73
2021/12/10 02:19:10;;;;;;;26.50;16.50;;;4.90;99.90;;;;;;4887987;29;20050;-73
2021/12/10 02:21:39;;;;;;;27.45;16.40;;;4.80;99.90;;;;;;4886864;29;20140;-74
2021/12/10 02:24:07;;;;;;;24.67;16.02;;;4.80;99.90;;;;;;4872448;29;20056;-74
2021/12/10 02:26:38;;;;;;;29.23;16.15;;;4.90;99.90;;;;;;4886328;29;20085;-73
2021/12/10 02:29:04;;;;;;;24.67;17.90;;;4.90;99.90;;;;;;4889147;29;20064;-73
2021/12/10 02:31:30;;;;;;;27.88;17.33;;;4.80;99.90;;;;;;4872253;29;20049;-73
2021/12/10 02:33:56;;;;;;;31.25;17.85;;;4.80;99.90;;;;;;4872881;29;20119;-73
2021/12/10 02:36:24;;;;;;;28.67;17.17;;;4.70;99.90;;;;;;4889547;29;20473;-73
2021/12/10 02:38:52;;;;;;;27.98;17.92;;;4.60;99.90;;;;;;4887101;29;20104;-73
2021/12/10 02:41:23;;;;;;;32.95;17.25;;;4.60;99.90;;;;;;4873789;29;20529;-73
2021/12/10 02:43:49;;;;;;;28.70;18.00;;;4.60;99.90;;;;;;4872853;29;20064;-73
2021/12/10 02:46:15;;;;;;;29.52;17.30;;;4.60;99.90;;;;;;4869633;29;20044;-73
2021/12/10 02:48:41;;;;;;;30.00;17.58;;;4.60;99.90;;;;;;4871087;29;20111;-73
2021/12/10 02:51:08;;;;;;;29.73;16.90;;;4.70;99.90;;;;;;4872313;29;20041;-73
2021/12/10 02:53:41;;;;;;;31.05;17.88;;;4.60;99.90;;;;;;4873280;29;20045;-73
2021/12/10 02:56:12;;;;;;;24.40;16.15;;;4.60;99.90;;;;;;4872631;29;20476;-73
2021/12/10 02:58:38;;;;;;;26.30;16.75;;;4.70;99.90;;;;;;4870864;29;20416;-73
2021/12/10 03:01:22;;;;;;;26.67;17.88;;;4.60;99.90;;;;;;4871332;29;20521;-73
2021/12/10 03:03:48;;;;;;;27.85;17.45;;;4.70;99.90;;;;;;4870163;29;20057;-73
2021/12/10 03:06:15;;;;;;;24.88;16.63;;;4.60;99.90;;;;;;4868778;29;20053;-73
2021/12/10 03:08:47;;;;;;;26.00;16.58;;;4.60;99.90;;;;;;4870857;29;20057;-73
2021/12/10 03:11:14;;;;;;;27.42;17.55;;;4.60;99.90;;;;;;4870875;29;20052;-73
2021/12/10 03:13:41;;;;;;;26.10;17.73;;;4.60;99.90;;;;;;4870144;29;20151;-74
2021/12/10 03:16:07;;;;;;;27.88;16.92;;;4.60;99.90;;;;;;4871325;29;20105;-73
2021/12/10 03:18:33;;;;;;;24.13;16.48;;;4.60;99.90;;;;;;4869951;29;20060;-73
2021/12/10 03:21:00;;;;;;;22.17;14.45;;;4.60;99.90;;;;;;4886165;29;20056;-73
2021/12/10 03:23:26;;;;;;;22.70;15.30;;;4.50;99.90;;;;;;4870676;29;20055;-73
2021/12/10 03:25:52;;;;;;;29.13;15.65;;;4.60;99.90;;;;;;4870177;29;20047;-73
2021/12/10 03:28:18;;;;;;;26.08;15.07;;;4.50;99.90;;;;;;4888490;29;20049;-73
2021/12/10 03:30:48;;;;;;;22.65;15.25;;;4.50;99.90;;;;;;4887899;29;20052;-73
2021/12/10 03:33:14;;;;;;;24.23;15.85;;;4.50;99.90;;;;;;4871571;29;20412;-73
2021/12/10 03:35:45;;;;;;;28.63;14.93;;;4.50;99.90;;;;;;4871102;29;20056;-73
2021/12/10 03:38:15;;;;;;;23.60;15.45;;;4.50;99.90;;;;;;4872312;29;20060;-72
2021/12/10 03:40:41;;;;;;;22.00;14.77;;;4.30;99.90;;;;;;4871979;29;20049;-73
2021/12/10 03:43:10;;;;;;;25.17;14.68;;;4.20;99.90;;;;;;4869564;29;20044;-73
2021/12/10 03:45:40;;;;;;;20.92;14.45;;;4.20;99.90;;;;;;4887894;29;20060;-73
2021/12/10 03:48:15;;;;;;;21.70;14.18;;;4.20;99.90;;;;;;4871531;29;20044;-73
2021/12/10 03:50:42;;;;;;;27.40;15.45;;;4.20;99.90;;;;;;4869143;29;20080;-73
2021/12/10 03:53:09;;;;;;;24.13;15.48;;;4.20;99.90;;;;;;4870930;29;20052;-73
2021/12/10 03:55:35;;;;;;;24.02;15.48;;;4.10;99.90;;;;;;4871875;29;20049;-73
2021/12/10 03:58:00;;;;;;;23.00;13.73;;;4.10;99.90;;;;;;4888168;29;20055;-72
2021/12/10 04:00:31;;;;;;;22.65;14.27;;;4.10;99.90;;;;;;4871906;29;20056;-73
2021/12/10 04:02:58;;;;;;;25.75;15.27;;;4.10;99.90;;;;;;4868994;29;20052;-73
2021/12/10 04:05:24;;;;;;;25.67;14.82;;;4.10;99.90;;;;;;4886730;29;20378;-73
2021/12/10 04:07:50;;;;;;;24.30;13.70;;;4.10;99.90;;;;;;4868900;29;20055;-73
2021/12/10 04:10:17;;;;;;;22.27;13.90;;;4.10;99.90;;;;;;4888234;29;20048;-73
2021/12/10 04:12:43;;;;;;;20.90;14.43;;;4.10;99.90;;;;;;4870114;29;20127;-73
2021/12/10 04:15:10;;;;;;;21.05;15.25;;;4.00;99.90;;;;;;4871671;29;20123;-73
2021/12/10 04:17:38;;;;;;;21.08;14.38;;;4.00;99.90;;;;;;4873516;29;20056;-73
2021/12/10 04:20:06;;;;;;;25.63;14.70;;;3.90;99.90;;;;;;4868638;29;20548;-73
2021/12/10 04:22:32;;;;;;;19.70;14.32;;;3.80;99.90;;;;;;4870662;29;20057;-73
2021/12/10 04:25:07;;;;;;;22.58;14.27;;;3.70;99.90;;;;;;4870182;29;20052;-73
2021/12/10 04:27:34;;;;;;;23.77;15.02;;;3.70;99.90;;;;;;4867451;29;20049;-73
2021/12/10 04:29:59;;;;;;;25.73;15.88;;;3.60;99.90;;;;;;4868707;29;20048;-73
2021/12/10 04:32:27;;;;;;;26.40;16.27;;;3.50;99.90;;;;;;4867897;29;20092;-72
2021/12/10 04:34:53;;;;;;;24.88;15.68;;;3.40;99.90;;;;;;4887733;29;20049;-72
2021/12/10 04:37:20;;;;;;;22.88;15.07;;;3.40;99.90;;;;;;4884868;29;20088;-74
2021/12/10 04:39:48;;;;;;;23.23;16.40;;;3.40;99.90;;;;;;4885318;29;20056;-73
2021/12/10 04:42:21;;;;;;;23.02;15.15;;;3.40;99.90;;;;;;4867677;29;20052;-73
2021/12/10 04:44:50;;;;;;;24.38;16.95;;;3.30;99.90;;;;;;4886139;29;20067;-74
2021/12/10 04:47:16;;;;;;;27.25;16.65;;;3.40;99.90;;;;;;4867985;29;20045;-73
2021/12/10 04:49:42;;;;;;;25.05;15.57;;;3.20;99.90;;;;;;4869831;29;20044;-73
2021/12/10 04:52:08;;;;;;;27.35;17.85;;;3.10;99.90;;;;;;4867714;29;20552;-73
2021/12/10 04:54:34;;;;;;;26.00;16.63;;;3.10;99.90;;;;;;4885656;29;20378;-73
2021/12/10 04:57:01;;;;;;;25.83;15.95;;;3.10;99.90;;;;;;4886300;29;20037;-73
2021/12/10 04:59:32;;;;;;;28.58;17.42;;;3.10;99.90;;;;;;4887214;29;20076;-73
2021/12/10 05:02:00;;;;;;;24.95;16.75;;;3.10;99.90;;;;;;4880448;29;20049;-73
2021/12/10 05:04:28;;;;;;;27.00;16.58;;;3.00;99.90;;;;;;4869014;29;20084;-73
2021/12/10 05:06:54;;;;;;;23.38;16.63;;;3.00;99.90;;;;;;4869989;29;20045;-73
2021/12/10 05:09:21;;;;;;;27.48;15.57;;;2.90;99.90;;;;;;4868000;29;20051;-73
2021/12/10 05:11:48;;;;;;;20.77;15.13;;;2.90;99.90;;;;;;4887589;29;20048;-74
2021/12/10 05:14:15;;;;;;;23.20;16.17;;;3.00;99.90;;;;;;4870823;29;20082;-73
2021/12/10 05:16:44;;;;;;;24.58;16.92;;;3.00;99.90;;;;;;4869695;29;20048;-73
2021/12/10 05:19:12;;;;;;;23.38;15.38;;;3.00;99.90;;;;;;4868969;29;20078;-73
2021/12/10 05:21:40;;;;;;;27.88;17.10;;;3.10;99.90;;;;;;4871252;29;20060;-73
2021/12/10 05:24:06;;;;;;;27.48;17.50;;;3.10;99.90;;;;;;4868091;29;20060;-73
2021/12/10 05:26:32;;;;;;;23.40;15.65;;;3.00;99.90;;;;;;4869266;29;20413;-73
2021/12/10 05:28:59;;;;;;;20.90;15.13;;;3.00;99.90;;;;;;4874256;29;20052;-73
2021/12/10 05:31:24;;;;;;;27.00;16.60;;;3.00;99.90;;;;;;4889651;29;20481;-73
2021/12/10 05:33:50;;;;;;;24.33;15.45;;;3.00;99.90;;;;;;4871527;29;20163;-73
2021/12/10 05:36:19;;;;;;;24.98;14.57;;;3.00;99.90;;;;;;4872083;29;20142;-73
2021/12/10 05:38:44;;;;;;;21.98;15.55;;;3.00;99.90;;;;;;4872037;29;20056;-73
2021/12/10 05:41:10;;;;;;;25.17;14.02;;;3.00;99.90;;;;;;4888852;29;20386;-73
2021/12/10 05:43:38;;;;;;;22.35;14.57;;;3.00;99.90;;;;;;4874213;29;20088;-73
2021/12/10 05:46:04;;;;;;;22.65;15.35;;;3.10;99.90;;;;;;4873394;29;20063;-73
2021/12/10 05:48:29;;;;;;;23.05;14.30;;;3.10;99.90;;;;;;4869618;29;21525;-73
2021/12/10 05:50:55;;;;;;;21.08;14.75;;;3.10;99.90;;;;;;4874091;29;20045;-73
2021/12/10 05:53:23;;;;;;;20.95;14.20;;;3.00;99.90;;;;;;4888884;29;20048;-72
2021/12/10 05:55:49;;;;;;;19.20;13.02;;;3.00;99.90;;;;;;4873823;29;20057;-73
2021/12/10 05:58:15;;;;;;;21.17;12.65;;;3.00;99.90;;;;;;4870690;29;20061;-73
2021/12/10 06:00:47;;;;;;;18.33;13.88;;;3.10;99.90;;;;;;4873897;29;20096;-72
2021/12/10 06:03:14;;;;;;;23.73;14.13;;;3.20;99.90;;;;;;4871409;29;20055;-73
2021/12/10 06:05:41;;;;;;;21.48;13.55;;;3.20;99.90;;;;;;4872177;29;20052;-73
2021/12/10 06:08:11;;;;;;;20.67;14.07;;;3.10;99.90;;;;;;4873829;29;20048;-72
2021/12/10 06:10:39;;;;;;;20.58;13.57;;;3.20;99.90;;;;;;4887993;29;20056;-73
2021/12/10 06:13:05;;;;;;;20.92;12.98;;;3.30;99.90;;;;;;4874582;29;20068;-72
2021/12/10 06:15:30;;;;;;;18.17;12.18;;;3.30;99.90;;;;;;4877376;29;20063;-72
2021/12/10 06:17:56;;;;;;;20.92;12.27;;;3.40;99.90;;;;;;4888433;29;20032;-72
2021/12/10 06:20:26;;;;;;;19.88;13.40;;;3.40;99.90;;;;;;4890590;29;20040;-72
2021/12/10 06:22:53;;;;;;;25.85;20.45;;;3.30;99.90;;;;;;4871493;29;20060;-72
2021/12/10 06:25:19;;;;;;;18.10;12.48;;;3.30;99.90;;;;;;4871408;29;20184;-73
2021/12/10 06:27:45;;;;;;;18.88;12.75;;;3.40;99.90;;;;;;4886573;29;20064;-72
2021/12/10 06:30:22;;;;;;;20.67;12.52;;;4.10;99.90;;;;;;4870463;29;20045;-72
2021/12/10 06:32:50;;;;;;;18.15;12.20;;;3.30;99.90;;;;;;4871577;29;20057;-72
2021/12/10 06:35:17;;;;;;;22.30;13.35;;;3.40;99.90;;;;;;4872147;29;20469;-73
2021/12/10 06:37:44;;;;;;;17.98;11.82;;;3.40;99.90;;;;;;4871998;29;20048;-72
2021/12/10 06:40:13;;;;;;;20.25;13.10;;;3.40;99.90;;;;;;4868700;29;20088;-73
2021/12/10 06:42:39;;;;;;;18.02;12.63;;;3.40;99.90;;;;;;4888378;29;20416;-73
2021/12/10 06:45:09;;;;;;;18.45;12.35;;;3.40;99.90;;;;;;4885151;29;20045;-72
2021/12/10 06:47:35;;;;;;;21.17;13.15;;;3.50;99.90;;;;;;4872975;29;20045;-73
2021/12/10 06:50:01;;;;;;;21.55;14.70;;;3.50;99.90;;;;;;4883315;29;20043;-72
2021/12/10 06:52:26;;;;;;;18.02;12.60;;;3.50;99.90;;;;;;4885158;29;20052;-72
2021/12/10 06:54:52;;;;;;;19.08;12.95;;;3.50;99.90;;;;;;4884249;29;20045;-72
2021/12/10 06:57:18;;;;;;;22.77;13.63;;;3.40;99.90;;;;;;4870105;29;20056;-73
2021/12/10 06:59:44;;;;;;;24.65;14.68;;;3.40;99.90;;;;;;4867265;29;20374;-73
2021/12/10 07:02:12;;;;;;;19.75;13.68;;;3.50;99.90;;;;;;4891398;29;20048;-73
2021/12/10 07:04:41;;;;;;;22.83;13.93;;;3.50;99.90;;;;;;4879782;29;20862;-72
2021/12/10 07:07:10;;;;;;;18.27;13.88;;;3.50;99.90;;;;;;4870162;29;20472;-73
2021/12/10 07:09:37;;;;;;;24.65;14.65;;;3.60;99.90;;;;;;4887481;29;20139;-72
2021/12/10 07:12:07;;;;;;;25.00;13.73;;;3.50;99.90;;;;;;4887779;29;20497;-72
2021/12/10 07:14:33;;;;;;;21.33;14.30;;;3.50;99.90;;;;;;4886098;29;20101;-73
2021/12/10 07:17:00;;;;;;;22.88;13.98;;;3.50;99.90;;;;;;4886885;29;20044;-72
2021/12/10 07:19:28;;;;;;;21.90;13.55;;;3.50;99.90;;;;;;4868398;29;20033;-72
2021/12/10 07:21:57;;;;;;;20.67;13.45;;;3.60;99.90;;;;;;4888458;29;20052;-72
2021/12/10 07:24:23;;;;;;;23.35;13.95;;;3.50;99.90;;;;;;4868760;29;20045;-72
2021/12/10 07:26:50;;;;;;;19.75;13.25;;;3.50;99.90;;;;;;4884918;29;20140;-73
2021/12/10 07:29:15;;;;;;;19.90;13.10;;;3.60;99.90;;;;;;4868084;29;20514;-72
2021/12/10 07:31:43;;;;;;;18.60;13.45;;;3.60;99.90;;;;;;4885046;29;20057;-72
2021/12/10 07:34:09;;;;;;;18.83;12.85;;;3.60;99.90;;;;;;4886553;29;20053;-73
2021/12/10 07:36:37;;;;;;;21.38;13.52;;;3.60;99.90;;;;;;4886358;29;20048;-73
2021/12/10 07:39:04;;;;;;;19.27;13.05;;;3.60;99.90;;;;;;4874329;29;20053;-72
2021/12/10 07:41:30;;;;;;;20.83;12.52;;;3.70;99.90;;;;;;4873313;29;20398;-73
2021/12/10 07:43:56;;;;;;;19.52;12.10;;;3.70;99.90;;;;;;4874702;29;20140;-73
2021/12/10 07:46:25;;;;;;;16.48;11.75;;;3.60;99.90;;;;;;4891962;29;20443;-73
2021/12/10 07:48:50;;;;;;;15.88;11.25;;;3.60;99.90;;;;;;4875132;29;20057;-73
2021/12/10 07:51:21;;;;;;;18.20;11.70;;;3.60;99.90;;;;;;4893648;29;20480;-73
2021/12/10 07:53:47;;;;;;;16.90;10.70;;;3.70;99.90;;;;;;4888175;29;20056;-73
2021/12/10 07:56:15;;;;;;;20.42;11.65;;;3.70;99.90;;;;;;4871575;29;20053;-74
2021/12/10 07:58:42;;;;;;;20.17;11.88;;;3.70;99.90;;;;;;4869512;29;20045;-73
2021/12/10 08:01:13;;;;;;;16.70;10.80;;;3.70;99.90;;;;;;4875180;29;20084;-73
2021/12/10 08:03:38;;;;;;;15.73;10.52;;;3.70;99.90;;;;;;4871062;29;20084;-73
2021/12/10 08:06:05;;;;;;;19.02;10.77;;;3.70;99.90;;;;;;4874775;29;20492;-73
2021/12/10 08:08:31;;;;;;;19.15;9.85;;;3.80;99.90;;;;;;4872207;29;20548;-72
2021/12/10 08:10:57;;;;;;;15.98;10.43;;;3.70;99.90;;;;;;4876258;29;20044;-72
2021/12/10 08:13:23;;;;;;;16.33;10.98;;;3.70;99.90;;;;;;4875417;29;20068;-72
2021/12/10 08:15:52;;;;;;;16.40;10.73;;;3.70;99.90;;;;;;4872220;29;20053;-73
2021/12/10 08:18:19;;;;;;;14.23;10.30;;;3.80;99.90;;;;;;4874019;29;20056;-73
2021/12/10 08:20:46;;;;;;;12.48;9.98;;;3.80;99.90;;;;;;4870773;29;20390;-73
2021/12/10 08:23:12;;;;;;;16.33;10.55;;;3.80;99.90;;;;;;4868688;29;20044;-73
2021/12/10 08:25:39;;;;;;;18.88;10.50;;;3.80;99.90;;;;;;4876558;29;20055;-73
2021/12/10 08:28:05;;;;;;;18.02;10.00;;;3.80;99.90;;;;;;4878008;29;20128;-73
2021/12/10 08:30:32;;;;;;;16.50;10.07;;;3.80;99.90;;;;;;4870249;29;20052;-73
2021/12/10 08:32:59;;;;;;;14.10;10.18;;;3.80;99.90;;;;;;4890942;29;20051;-73
2021/12/10 08:35:29;;;;;;;16.75;10.50;;;3.90;99.90;;;;;;4871320;29;20127;-73
2021/12/10 08:37:57;;;;;;;16.70;9.52;;;3.80;99.90;;;;;;4870630;29;20052;-73
2021/12/10 08:40:28;;;;;;;20.73;11.20;;;3.80;99.90;;;;;;4873763;29;20060;-73
2021/12/10 08:42:54;;;;;;;16.40;10.93;;;3.80;99.90;;;;;;4870281;29;20053;-73
2021/12/10 08:45:22;;;;;;;18.88;10.65;;;3.80;99.90;;;;;;4891290;29;20163;-73
2021/12/10 08:47:49;;;;;;;15.35;10.23;;;3.80;99.90;;;;;;4873854;29;20044;-73
2021/12/10 08:50:18;;;;;;;13.15;10.00;;;3.80;99.90;;;;;;4870728;29;20053;-73
2021/12/10 08:52:46;;;;;;;15.73;10.63;;;3.80;99.90;;;;;;4870950;29;20056;-73
2021/12/10 08:55:12;;;;;;;15.43;9.88;;;3.90;99.90;;;;;;4887488;29;20040;-73
2021/12/10 08:57:38;;;;;;;16.02;10.20;;;3.90;99.90;;;;;;4892822;29;20056;-73
2021/12/10 09:00:07;;;;;;;14.20;9.68;;;3.80;99.90;;;;;;4870813;29;20108;-73
2021/12/10 09:02:34;;;;;;;15.10;9.68;;;3.80;99.90;;;;;;4872895;29;20048;-73
2021/12/10 09:05:00;;;;;;;14.68;9.27;;;3.80;99.90;;;;;;4874292;29;20060;-73
2021/12/10 09:07:25;;;;;;;14.68;9.63;;;3.80;99.90;;;;;;4876873;29;20059;-73
2021/12/10 09:09:54;;;;;;;13.43;9.25;;;3.80;99.90;;;;;;4891361;29;20032;-73
2021/12/10 09:12:23;;;;;;;13.25;9.05;;;3.80;99.90;;;;;;4867972;29;20061;-73
2021/12/10 09:14:53;;;;;;;15.27;8.43;;;3.70;99.90;;;;;;4875552;29;20060;-73
2021/12/10 09:17:23;;;;;;;15.48;9.55;;;3.80;99.90;;;;;;4891997;29;20079;-73
2021/12/10 09:19:51;;;;;;;14.90;8.13;;;3.90;99.90;;;;;;4868668;29;20056;-72
2021/12/10 09:22:17;;;;;;;17.50;9.13;;;3.90;99.90;;;;;;4873209;29;20135;-73
2021/12/10 09:24:45;;;;;;;13.98;7.88;;;3.90;99.90;;;;;;4866746;29;20049;-74
2021/12/10 09:27:12;;;;;;;12.60;8.50;;;3.90;99.90;;;;;;4888171;29;20049;-73
2021/12/10 09:29:42;;;;;;;14.02;7.97;;;3.90;99.90;;;;;;4867891;29;20056;-73
2021/12/10 09:32:10;;;;;;;12.63;8.10;;;3.90;99.90;;;;;;4870047;29;20057;-73
2021/12/10 09:34:36;;;;;;;12.13;8.43;;;3.90;99.90;;;;;;4873548;29;20081;-73
2021/12/10 09:37:03;;;;;;;13.38;8.15;;;4.00;99.90;;;;;;4887702;29;20053;-73
2021/12/10 09:39:30;;;;;;;12.68;7.70;;;4.10;99.90;;;;;;4890058;29;20100;-73
2021/12/10 09:41:56;;;;;;;12.57;8.13;;;4.10;99.90;;;;;;4889165;29;20075;-73
2021/12/10 09:44:22;;;;;;;12.85;8.13;;;4.00;99.90;;;;;;4873364;29;20441;-73
2021/12/10 09:46:50;;;;;;;13.27;7.82;;;4.10;99.90;;;;;;4875037;29;21047;-73
2021/12/10 09:49:16;;;;;;;12.57;7.90;;;4.20;99.90;;;;;;4890427;29;20048;-73
2021/12/10 09:51:49;;;;;;;13.65;8.23;;;4.20;99.90;;;;;;4891286;29;20040;-73
2021/12/10 09:54:19;;;;;;;12.32;7.95;;;4.20;99.90;;;;;;4870182;29;20445;-73
2021/12/10 09:56:50;;;;;;;11.35;8.25;;;4.20;99.90;;;;;;4871855;29;20052;-73
2021/12/10 09:59:16;;;;;;;13.88;8.45;;;4.20;99.90;;;;;;4885243;29;20049;-73
2021/12/10 10:01:45;;;;;;;13.75;8.63;;;4.20;99.90;;;;;;4891784;29;20041;-74
2021/12/10 10:04:14;;;;;;;12.00;8.05;;;4.10;99.90;;;;;;4872482;29;20053;-73
2021/12/10 10:06:45;;;;;;;10.52;7.60;;;4.10;99.90;;;;;;4893264;29;20051;-73
2021/12/10 10:09:14;;;;;;;13.55;8.73;;;4.20;99.90;;;;;;4864947;29;20057;-73
2021/12/10 10:11:40;;;;;;;10.43;7.18;;;4.10;99.90;;;;;;4888430;29;20060;-72
2021/12/10 10:14:06;;;;;;;12.80;7.60;;;4.10;99.90;;;;;;4875221;29;20055;-73
2021/12/10 10:16:35;;;;;;;13.20;7.18;;;4.00;99.90;;;;;;4894560;29;20045;-73
2021/12/10 10:19:02;;;;;;;13.18;7.90;;;3.90;99.90;;;;;;4877232;29;20052;-73
2021/12/10 10:21:34;;;;;;;12.20;7.70;;;3.90;99.90;;;;;;4874563;29;20067;-73
2021/12/10 10:24:03;;;;;;;13.43;8.00;;;3.90;99.90;;;;;;4873533;29;20064;-73
2021/12/10 10:26:35;;;;;;;11.60;7.97;;;3.90;99.90;;;;;;4877247;29;20313;-73
2021/12/10 10:29:08;;;;;;;13.35;7.72;;;3.90;99.90;;;;;;4873195;29;20516;-74
2021/12/10 10:31:36;;;;;;;14.07;8.10;;;3.90;99.90;;;;;;4873740;29;20041;-73
2021/12/10 10:34:03;;;;;;;9.88;7.75;;;4.00;99.90;;;;;;4872065;29;20063;-73
2021/12/10 10:36:32;;;;;;;11.45;7.75;;;4.10;99.90;;;;;;4868421;29;20087;-73
2021/12/10 10:39:22;;;;;;;12.68;7.15;;;4.20;99.90;;;;;;4874913;29;20052;-73
2021/12/10 10:41:53;;;;;;;13.70;7.05;;;4.30;99.90;;;;;;4883024;29;20163;-73
2021/12/10 10:44:20;;;;;;;12.48;7.57;;;4.40;99.90;;;;;;4871895;29;20052;-73
2021/12/10 10:46:47;;;;;;;11.48;6.85;;;4.50;99.90;;;;;;4872674;29;20120;-74
2021/12/10 10:49:35;;;;;;;14.23;7.40;;;4.60;99.90;;;;;;4873976;29;20136;-74
2021/12/10 10:52:28;;;;;;;13.15;7.35;;;4.80;99.90;;;;;;4877225;29;20071;-73
2021/12/10 10:54:57;;;;;;;15.30;8.07;;;4.80;99.90;;;;;;4876288;29;20098;-72
2021/12/10 10:57:26;;;;;;;13.93;7.10;;;4.90;99.90;;;;;;4892756;29;20499;-73
2021/12/10 10:59:56;;;;;;;11.60;7.18;;;4.80;99.90;;;;;;4898436;29;20415;-73
2021/12/10 11:02:28;;;;;;;11.15;7.25;;;4.90;99.90;;;;;;4877917;29;20037;-74
2021/12/10 11:04:54;;;;;;;12.18;7.00;;;4.90;99.90;;;;;;4878467;29;20544;-73
2021/12/10 11:07:26;;;;;;;9.90;7.18;;;5.00;99.90;;;;;;4877418;29;20045;-73
2021/12/10 11:10:02;;;;;;;14.48;7.05;;;4.90;99.90;;;;;;4876860;29;20076;-73
2021/12/10 11:12:33;;;;;;;11.60;6.93;;;4.90;99.90;;;;;;4874396;29;20105;-73
2021/12/10 11:15:05;;;;;;;11.32;7.13;;;4.90;99.90;;;;;;4876065;29;20429;-73
2021/12/10 11:17:48;;;;;;;10.27;6.78;;;5.00;99.90;;;;;;4876590;29;20076;-74
2021/12/10 11:20:17;;;;;;;12.00;6.75;;;5.00;99.90;;;;;;4874000;29;20059;-73
2021/12/10 11:22:48;;;;;;;11.35;7.35;;;5.00;99.90;;;;;;4871175;29;20040;-73
2021/12/10 11:25:23;;;;;;;13.02;7.40;;;5.00;99.90;;;;;;4874246;29;20040;-74
2021/12/10 11:27:49;;;;;;;10.82;7.00;;;5.10;99.90;;;;;;4874592;29;20495;-72
2021/12/10 11:30:22;;;;;;;12.10;6.85;;;5.10;99.90;;;;;;4876526;29;20053;-74
2021/12/10 11:32:55;;;;;;;10.05;6.82;;;5.10;99.90;;;;;;4871928;29;20076;-73
2021/12/10 11:35:49;;;;;;;14.13;7.60;;;5.20;99.90;;;;;;4868485;29;20177;-73
2021/12/10 11:38:29;;;;;;;12.02;6.70;;;5.10;99.90;;;;;;4889351;29;20040;-73
2021/12/10 11:41:18;;;;;;;10.02;6.78;;;5.10;99.90;;;;;;4871390;29;20123;-73
2021/12/10 11:44:06;;;;;;;11.23;6.75;;;5.00;99.90;;;;;;4877580;29;20149;-73
2021/12/10 11:49:17;;;;;;;11.70;6.47;;;5.10;99.90;;;;;;4878023;29;20049;-72
2021/12/10 11:51:50;;;;;;;11.23;6.75;;;5.10;99.90;;;;;;4873884;29;20204;-72
2021/12/10 11:54:39;;;;;;;11.52;6.47;;;5.10;99.90;;;;;;4873642;29;20060;-72
2021/12/10 11:57:15;;;;;;;13.77;7.90;;;5.10;99.90;;;;;;4867608;29;20127;-73
2021/12/10 11:59:48;;;;;;;9.82;6.40;;;5.10;99.90;;;;;;4887007;29;20059;-73
2021/12/10 12:02:17;;;;;;;9.38;6.43;;;5.10;99.90;;;;;;4872562;29;20197;-73
2021/12/10 12:04:47;;;;;;;10.90;6.82;;;5.10;99.90;;;;;;4891112;29;20362;-72
2021/12/10 12:07:19;;;;;;;11.63;7.30;;;5.00;99.90;;;;;;4891551;29;20180;-73
2021/12/10 12:10:23;;;;;;;9.63;6.20;;;5.10;99.90;;;;;;4874983;29;20374;-74
2021/12/10 12:13:22;;;;;;;12.57;8.40;;;5.10;99.90;;;;;;4867872;29;20045;-72
2021/12/10 12:16:01;;;;;;;13.07;6.97;;;5.10;99.90;;;;;;4873531;29;20062;-73
2021/12/10 12:18:31;;;;;;;10.05;6.95;;;5.10;99.90;;;;;;4875657;29;20052;-73
2021/12/10 12:27:05;;;;;;;11.65;6.88;;;5.10;99.90;;;;;;4875967;29;20040;-73
2021/12/10 12:29:38;;;;;;;11.45;6.43;;;5.00;99.90;;;;;;4876525;29;20048;-73
2021/12/10 12:32:16;;;;;;;9.77;6.47;;;5.00;99.90;;;;;;4871323;29;20434;-73
2021/12/10 12:34:42;;;;;;;10.27;6.53;;;5.00;99.90;;;;;;4873539;29;20509;-73
2021/12/10 12:37:10;;;;;;;11.07;7.13;;;5.00;99.90;;;;;;4890001;29;20045;-73
2021/12/10 12:39:38;;;;;;;9.43;6.40;;;5.00;99.90;;;;;;4877828;29;20056;-73
2021/12/10 12:42:12;;;;;;;13.35;7.00;;;5.10;99.90;;;;;;4875548;29;20049;-73
2021/12/10 12:44:41;;;;;;;8.50;6.10;;;5.00;99.90;;;;;;4871730;29;20402;-73
2021/12/10 12:47:12;;;;;;;12.18;6.60;;;5.00;99.90;;;;;;4886123;29;20044;-73
2021/12/10 12:49:38;;;;;;;11.35;6.75;;;5.00;99.90;;;;;;4870936;29;20040;-73
2021/12/10 12:52:13;;;;;;;10.55;6.70;;;5.00;99.90;;;;;;4877564;29;20048;-73
2021/12/10 12:55:15;;;;;;;13.25;6.60;;;5.00;99.90;;;;;;4871769;29;20056;-73
2021/12/10 12:57:42;;;;;;;12.80;6.90;;;5.00;99.90;;;;;;4885914;29;20115;-73
2021/12/10 13:00:16;;;;;;;11.38;6.30;;;4.90;99.90;;;;;;4875476;29;20560;-74
2021/12/10 13:02:41;;;;;;;9.70;6.22;;;5.00;99.90;;;;;;4893287;29;20056;-74
2021/12/10 13:05:10;;;;;;;11.05;7.05;;;5.00;99.90;;;;;;4872886;29;20075;-73
2021/12/10 13:07:37;;;;;;;11.40;7.40;;;5.00;99.90;;;;;;4875495;29;20188;-73